createdAt,value
2023-04-08T00:01:38.135Z,7.27
2023-04-08T00:04:04.774Z,7.26
2023-04-08T00:06:31.334Z,7.32
2023-04-08T00:08:57.631Z,7.44
2023-04-08T00:11:23.952Z,7.01
2023-04-08T00:13:50.258Z,7.15
2023-04-08T00:16:16.551Z,7.30
2023-04-08T00:18:42.911Z,7.25
2023-04-08T00:21:09.213Z,7.38
2023-04-08T00:23:35.522Z,6.99
2023-04-08T00:26:01.839Z,7.14
2023-04-08T00:28:28.149Z,6.82
2023-04-08T00:30:54.488Z,7.12
2023-04-08T00:33:20.826Z,7.25
2023-04-08T00:35:47.153Z,7.32
2023-04-08T00:38:13.478Z,7.26
2023-04-08T00:40:39.805Z,7.29
2023-04-08T00:43:06.107Z,7.37
2023-04-08T00:45:32.414Z,7.44
2023-04-08T00:47:58.862Z,7.40
2023-04-08T00:50:25.189Z,7.21
2023-04-08T00:52:51.503Z,7.21
2023-04-08T00:55:17.876Z,7.29
2023-04-08T00:57:44.184Z,7.23
2023-04-08T01:00:10.486Z,7.26
2023-04-08T01:02:37.051Z,7.07
2023-04-08T01:05:03.631Z,7.45
2023-04-08T01:07:29.924Z,7.39
2023-04-08T01:09:56.247Z,7.39
2023-04-08T01:12:22.554Z,7.36
2023-04-08T01:14:48.844Z,7.32
2023-04-08T01:17:15.157Z,7.22
2023-04-08T01:19:41.450Z,7.21
2023-04-08T01:22:07.758Z,7.23
2023-04-08T01:24:34.077Z,7.25
2023-04-08T01:27:00.603Z,7.33
2023-04-08T01:29:26.936Z,7.17
2023-04-08T01:31:53.246Z,7.11
2023-04-08T01:34:19.544Z,7.15
2023-04-08T01:36:45.864Z,7.28
2023-04-08T01:39:12.221Z,7.43
2023-04-08T01:41:38.529Z,7.29
2023-04-08T01:44:04.833Z,7.21
2023-04-08T01:46:31.191Z,7.13
2023-04-08T01:48:57.534Z,7.10
2023-04-08T01:51:23.832Z,7.02
2023-04-08T01:53:50.153Z,7.24
2023-04-08T01:56:16.453Z,7.10
2023-04-08T01:58:42.899Z,7.16
2023-04-08T02:01:09.246Z,6.99
2023-04-08T02:03:35.692Z,7.06
2023-04-08T02:06:02.098Z,6.97
2023-04-08T02:08:28.412Z,7.05
2023-04-08T02:10:54.690Z,6.94
2023-04-08T02:13:21.010Z,7.16
2023-04-08T02:15:47.436Z,7.29
2023-04-08T02:18:13.799Z,7.21
2023-04-08T02:20:40.141Z,7.19
2023-04-08T02:23:06.455Z,7.13
2023-04-08T02:25:32.799Z,6.98
2023-04-08T02:27:59.145Z,6.90
2023-04-08T02:30:25.462Z,6.89
2023-04-08T02:32:51.870Z,6.84
2023-04-08T02:35:18.219Z,6.79
2023-04-08T02:37:44.563Z,6.69
2023-04-08T02:40:10.865Z,6.61
2023-04-08T02:42:37.164Z,6.73
2023-04-08T02:45:03.469Z,6.59
2023-04-08T02:47:29.754Z,6.70
2023-04-08T02:49:56.130Z,6.62
2023-04-08T02:52:22.463Z,6.49
2023-04-08T02:54:48.761Z,6.64
2023-04-08T02:57:15.066Z,6.76
2023-04-08T02:59:41.398Z,6.68
2023-04-08T03:02:07.778Z,6.67
2023-04-08T03:04:34.154Z,6.82
2023-04-08T03:07:00.519Z,6.86
2023-04-08T03:09:26.833Z,6.94
2023-04-08T03:11:53.147Z,7.00
2023-04-08T03:14:19.480Z,7.09
2023-04-08T03:16:45.815Z,7.02
2023-04-08T03:19:12.185Z,7.07
2023-04-08T03:21:38.503Z,7.00
2023-04-08T03:24:04.810Z,6.87
2023-04-08T03:26:31.105Z,6.72
2023-04-08T03:28:57.423Z,6.82
2023-04-08T03:31:23.949Z,6.71
2023-04-08T03:33:50.258Z,6.70
2023-04-08T03:36:16.579Z,6.70
2023-04-08T03:38:42.877Z,6.66
2023-04-08T03:41:09.168Z,6.78
2023-04-08T03:43:37.434Z,6.67
2023-04-08T03:46:04.332Z,6.68
2023-04-08T03:48:30.671Z,6.74
2023-04-08T03:50:56.998Z,6.77
2023-04-08T03:53:23.304Z,6.68
2023-04-08T03:55:49.625Z,6.73
2023-04-08T03:58:15.977Z,6.76
2023-04-08T04:00:42.301Z,6.72
2023-04-08T04:03:08.652Z,6.77
2023-04-08T04:05:35.028Z,6.71
2023-04-08T04:08:01.348Z,6.67
2023-04-08T04:10:27.655Z,6.62
2023-04-08T04:12:54.007Z,6.56
2023-04-08T04:15:20.304Z,6.61
2023-04-08T04:17:46.623Z,6.57
2023-04-08T04:20:12.957Z,6.56
2023-04-08T04:22:39.268Z,6.67
2023-04-08T04:25:05.582Z,6.44
2023-04-08T04:27:31.941Z,6.50
2023-04-08T04:29:58.245Z,6.55
2023-04-08T04:32:24.582Z,6.54
2023-04-08T04:34:50.931Z,6.42
2023-04-08T04:37:17.240Z,6.42
2023-04-08T04:39:43.540Z,6.46
2023-04-08T04:42:09.857Z,6.65
2023-04-08T04:44:36.170Z,6.64
2023-04-08T04:47:02.470Z,6.49
2023-04-08T04:49:28.786Z,6.50
2023-04-08T04:51:55.080Z,6.66
2023-04-08T04:54:21.383Z,6.70
2023-04-08T04:56:47.688Z,6.74
2023-04-08T04:59:13.964Z,6.73
2023-04-08T05:01:40.360Z,6.87
2023-04-08T05:04:06.780Z,6.68
2023-04-08T05:06:33.087Z,6.74
2023-04-08T05:08:59.411Z,6.66
2023-04-08T05:11:25.726Z,6.70
2023-04-08T05:13:52.023Z,6.64
2023-04-08T05:16:18.433Z,6.52
2023-04-08T05:18:44.824Z,6.52
2023-04-08T05:21:11.133Z,6.52
2023-04-08T05:23:37.445Z,6.51
2023-04-08T05:26:03.760Z,6.60
2023-04-08T05:28:30.055Z,6.73
2023-04-08T05:30:56.350Z,6.62
2023-04-08T05:33:22.707Z,6.69
2023-04-08T05:35:49.010Z,6.76
2023-04-08T05:38:15.401Z,6.79
2023-04-08T05:40:41.723Z,6.86
2023-04-08T05:43:08.023Z,6.85
2023-04-08T05:45:34.335Z,6.94
2023-04-08T05:48:00.731Z,6.87
2023-04-08T05:50:27.062Z,6.91
2023-04-08T05:52:53.370Z,6.84
2023-04-08T05:55:19.695Z,6.89
2023-04-08T05:57:46.004Z,6.99
2023-04-08T06:00:12.310Z,6.97
2023-04-08T06:02:39.016Z,6.89
2023-04-08T06:05:05.626Z,6.78
2023-04-08T06:07:32.148Z,6.98
2023-04-08T06:09:58.476Z,6.85
2023-04-08T06:12:24.786Z,6.88
2023-04-08T06:14:51.084Z,6.94
2023-04-08T06:17:17.395Z,6.98
2023-04-08T06:19:43.684Z,7.01
2023-04-08T06:22:10.003Z,7.02
2023-04-08T06:24:36.367Z,7.01
2023-04-08T06:27:02.685Z,7.08
2023-04-08T06:29:29.053Z,6.91
2023-04-08T06:31:55.483Z,7.09
2023-04-08T06:34:21.888Z,6.93
2023-04-08T06:36:48.177Z,7.05
2023-04-08T06:39:14.505Z,7.13
2023-04-08T06:41:40.799Z,6.96
2023-04-08T06:44:07.103Z,6.93
2023-04-08T06:46:33.424Z,6.87
2023-04-08T06:48:59.721Z,7.12
2023-04-08T06:51:26.057Z,7.06
2023-04-08T06:53:52.366Z,7.13
2023-04-08T06:56:18.665Z,7.23
2023-04-08T06:58:45.093Z,7.39
2023-04-08T07:01:11.444Z,7.45
2023-04-08T07:03:37.876Z,7.60
2023-04-08T07:06:04.500Z,7.63
2023-04-08T07:08:30.878Z,7.63
2023-04-08T07:10:57.204Z,7.47
2023-04-08T07:13:23.495Z,7.35
2023-04-08T07:15:49.848Z,7.34
2023-04-08T07:18:16.152Z,7.33
2023-04-08T07:20:42.437Z,7.23
2023-04-08T07:23:08.755Z,7.32
2023-04-08T07:25:35.059Z,7.41
2023-04-08T07:28:01.365Z,7.38
2023-04-08T07:30:27.732Z,7.77
2023-04-08T07:32:54.090Z,8.11
2023-04-08T07:35:20.437Z,8.12
2023-04-08T07:37:46.762Z,7.94
2023-04-08T07:40:13.068Z,8.20
2023-04-08T07:42:40.823Z,8.39
2023-04-08T07:45:07.243Z,8.09
2023-04-08T07:47:33.554Z,8.03
2023-04-08T07:49:59.888Z,9.05
2023-04-08T07:52:26.222Z,9.05
2023-04-08T07:54:52.517Z,9.50
2023-04-08T07:57:18.848Z,9.66
2023-04-08T07:59:45.220Z,10.01
2023-04-08T08:02:11.604Z,10.04
2023-04-08T08:04:38.145Z,10.14
2023-04-08T08:07:04.576Z,9.96
2023-04-08T08:09:32.091Z,9.98
2023-04-08T08:11:58.526Z,10.03
2023-04-08T08:14:24.849Z,9.65
2023-04-08T08:16:51.151Z,9.83
2023-04-08T08:19:17.455Z,9.31
2023-04-08T08:21:43.769Z,8.93
2023-04-08T08:24:10.074Z,9.47
2023-04-08T08:26:36.390Z,9.57
2023-04-08T08:29:02.723Z,9.58
2023-04-08T08:31:29.100Z,10.05
2023-04-08T08:33:55.445Z,9.72
2023-04-08T08:36:21.803Z,9.94
2023-04-08T08:38:48.102Z,10.30
2023-04-08T08:41:14.407Z,10.56
2023-04-08T08:43:40.719Z,10.57
2023-04-08T08:46:07.067Z,10.78
2023-04-08T08:48:33.428Z,10.56
2023-04-08T08:50:59.742Z,10.84
2023-04-08T08:53:26.045Z,10.36
2023-04-08T08:56:16.380Z,10.85
2023-04-08T08:58:38.643Z,10.61
2023-04-08T09:01:04.953Z,11.06
2023-04-08T09:03:31.395Z,10.72
2023-04-08T09:05:57.839Z,10.61
2023-04-08T09:08:24.140Z,10.88
2023-04-08T09:10:50.446Z,10.83
2023-04-08T09:13:16.766Z,10.91
2023-04-08T09:15:43.073Z,11.13
2023-04-08T09:18:09.579Z,10.95
2023-04-08T09:20:35.994Z,11.03
2023-04-08T09:23:02.344Z,11.43
2023-04-08T09:25:28.689Z,11.15
2023-04-08T09:27:55.035Z,10.78
2023-04-08T09:30:21.335Z,10.63
2023-04-08T09:32:47.710Z,10.90
2023-04-08T09:35:14.154Z,11.90
2023-04-08T09:37:40.459Z,11.88
2023-04-08T09:40:06.753Z,12.04
2023-04-08T09:42:33.118Z,12.12
2023-04-08T09:44:59.419Z,12.04
2023-04-08T09:47:25.735Z,12.27
2023-04-08T09:49:52.092Z,12.40
2023-04-08T09:52:18.403Z,12.35
2023-04-08T09:54:44.711Z,11.76
2023-04-08T09:57:11.116Z,12.05
2023-04-08T09:59:37.425Z,11.93
2023-04-08T10:02:03.810Z,12.62
2023-04-08T10:04:30.248Z,12.61
2023-04-08T10:06:56.599Z,12.40
2023-04-08T10:09:22.910Z,12.65
2023-04-08T10:11:49.244Z,12.34
2023-04-08T10:14:15.555Z,13.32
2023-04-08T10:16:41.907Z,13.65
2023-04-08T10:19:08.266Z,13.56
2023-04-08T10:21:34.590Z,12.88
2023-04-08T10:24:00.898Z,12.87
2023-04-08T10:26:27.247Z,13.52
2023-04-08T10:28:53.554Z,13.87
2023-04-08T10:31:19.882Z,13.87
2023-04-08T10:33:46.203Z,13.36
2023-04-08T10:36:12.567Z,13.24
2023-04-08T10:38:38.889Z,13.31
2023-04-08T10:41:05.370Z,13.47
2023-04-08T10:43:31.671Z,13.04
2023-04-08T10:45:58.024Z,14.11
2023-04-08T10:48:24.465Z,13.54
2023-04-08T10:50:50.784Z,14.13
2023-04-08T10:53:17.090Z,14.13
2023-04-08T10:55:43.413Z,14.12
2023-04-08T10:58:09.851Z,14.27
2023-04-08T11:00:36.153Z,14.51
2023-04-08T11:03:02.601Z,13.22
2023-04-08T11:05:28.984Z,13.17
2023-04-08T11:07:55.299Z,13.19
2023-04-08T11:10:21.630Z,12.79
2023-04-08T11:12:47.918Z,13.20
2023-04-08T11:15:14.217Z,13.14
2023-04-08T11:17:40.559Z,13.03
2023-04-08T11:20:06.883Z,13.32
2023-04-08T11:22:33.194Z,13.51
2023-04-08T11:24:59.521Z,13.87
2023-04-08T11:27:25.831Z,14.25
2023-04-08T11:29:52.166Z,13.38
2023-04-08T11:32:18.484Z,12.51
2023-04-08T11:34:44.780Z,12.96
2023-04-08T11:37:11.087Z,12.57
2023-04-08T11:39:37.417Z,12.88
2023-04-08T11:42:03.711Z,12.67
2023-04-08T11:44:30.012Z,12.37
2023-04-08T11:46:56.499Z,12.45
2023-04-08T11:49:22.819Z,12.11
2023-04-08T11:51:49.116Z,12.31
2023-04-08T11:54:15.475Z,12.57
2023-04-08T11:56:41.773Z,12.55
2023-04-08T11:59:08.091Z,12.45
2023-04-08T12:01:34.426Z,12.10
2023-04-08T12:04:00.894Z,12.27
2023-04-08T12:06:27.326Z,11.68
2023-04-08T12:08:53.710Z,11.78
2023-04-08T12:11:20.396Z,11.85
2023-04-08T12:13:46.726Z,12.10
2023-04-08T12:16:13.081Z,12.12
2023-04-08T12:18:39.447Z,11.79
2023-04-08T12:21:05.754Z,12.10
2023-04-08T12:23:32.075Z,11.75
2023-04-08T12:25:58.369Z,11.81
2023-04-08T12:28:24.663Z,11.87
2023-04-08T12:30:50.993Z,11.97
2023-04-08T12:33:17.288Z,11.89
2023-04-08T12:35:43.629Z,11.85
2023-04-08T12:38:10.035Z,12.04
2023-04-08T12:40:36.330Z,12.15
2023-04-08T12:43:02.626Z,11.80
2023-04-08T12:45:28.939Z,11.78
2023-04-08T12:47:55.321Z,11.89
2023-04-08T12:50:21.647Z,11.78
2023-04-08T12:52:47.962Z,11.75
2023-04-08T12:55:14.267Z,12.16
2023-04-08T12:57:40.568Z,11.73
2023-04-08T13:00:06.948Z,11.95
2023-04-08T13:02:33.277Z,12.04
2023-04-08T13:04:59.593Z,11.78
2023-04-08T13:07:25.956Z,11.62
2023-04-08T13:09:52.251Z,11.37
2023-04-08T13:12:18.552Z,11.44
2023-04-08T13:14:44.868Z,11.35
2023-04-08T13:17:11.186Z,11.45
2023-04-08T13:19:37.483Z,11.24
2023-04-08T13:22:03.802Z,11.30
2023-04-08T13:24:30.101Z,11.24
2023-04-08T13:26:56.401Z,11.60
2023-04-08T13:29:23.876Z,11.64
2023-04-08T13:31:50.209Z,11.77
2023-04-08T13:34:16.539Z,11.73
2023-04-08T13:36:42.873Z,11.70
2023-04-08T13:39:09.173Z,11.93
2023-04-08T13:41:35.470Z,11.88
2023-04-08T13:44:01.806Z,12.12
2023-04-08T13:46:28.136Z,12.12
2023-04-08T13:48:54.651Z,11.94
2023-04-08T13:51:21.144Z,12.01
2023-04-08T13:53:47.445Z,11.92
2023-04-08T13:56:13.743Z,11.60
2023-04-08T13:58:40.093Z,11.87
2023-04-08T14:01:06.407Z,11.86
2023-04-08T14:03:32.724Z,12.14
2023-04-08T14:06:01.582Z,12.25
2023-04-08T14:08:28.187Z,12.21
2023-04-08T14:10:54.496Z,12.35
2023-04-08T14:13:20.852Z,12.18
2023-04-08T14:15:47.208Z,11.77
2023-04-08T14:18:13.558Z,11.82
2023-04-08T14:20:39.882Z,11.77
2023-04-08T14:23:06.190Z,11.80
2023-04-08T14:25:32.511Z,12.08
2023-04-08T14:27:59.121Z,11.72
2023-04-08T14:30:25.474Z,11.67
2023-04-08T14:32:51.827Z,11.74
2023-04-08T14:35:18.183Z,12.01
2023-04-08T14:37:44.498Z,11.84
2023-04-08T14:40:10.838Z,11.84
2023-04-08T14:42:37.170Z,12.03
2023-04-08T14:45:03.482Z,11.68
2023-04-08T14:47:29.807Z,11.82
2023-04-08T14:49:56.143Z,12.00
2023-04-08T14:52:22.441Z,12.15
2023-04-08T14:54:48.751Z,12.30
2023-04-08T14:57:15.087Z,12.43
2023-04-08T14:59:41.393Z,12.25
2023-04-08T15:02:07.826Z,12.02
2023-04-08T15:04:34.306Z,11.97
2023-04-08T15:07:00.638Z,11.89
2023-04-08T15:09:26.946Z,11.59
2023-04-08T15:11:53.318Z,11.94
2023-04-08T15:14:19.619Z,11.90
2023-04-08T15:16:45.922Z,11.99
2023-04-08T15:19:12.259Z,12.13
2023-04-08T15:21:38.551Z,12.41
2023-04-08T15:24:04.864Z,12.15
2023-04-08T15:26:31.176Z,11.89
2023-04-08T15:28:57.520Z,11.83
2023-04-08T15:31:23.930Z,11.47
2023-04-08T15:33:50.637Z,11.72
2023-04-08T15:36:17.051Z,11.82
2023-04-08T15:38:43.381Z,11.79
2023-04-08T15:41:09.723Z,11.89
2023-04-08T15:43:36.022Z,11.94
2023-04-08T15:46:02.324Z,11.54
2023-04-08T15:48:28.667Z,11.73
2023-04-08T15:50:55.066Z,11.90
2023-04-08T15:53:21.394Z,11.85
2023-04-08T15:55:47.712Z,11.95
2023-04-08T15:58:14.015Z,12.00
2023-04-08T16:00:40.327Z,12.02
2023-04-08T16:03:06.912Z,12.16
2023-04-08T16:05:33.315Z,12.21
2023-04-08T16:07:59.617Z,12.02
2023-04-08T16:10:25.936Z,12.28
2023-04-08T16:12:52.249Z,12.01
2023-04-08T16:15:18.575Z,11.83
2023-04-08T16:17:44.995Z,12.00
2023-04-08T16:20:11.340Z,12.11
2023-04-08T16:22:37.647Z,12.23
2023-04-08T16:25:04.020Z,11.85
2023-04-08T16:27:30.318Z,11.68
2023-04-08T16:29:56.630Z,11.49
2023-04-08T16:32:23.033Z,11.33
2023-04-08T16:34:49.411Z,11.41
2023-04-08T16:37:15.711Z,11.27
2023-04-08T16:39:42.088Z,11.29
2023-04-08T16:42:08.388Z,11.29
2023-04-08T16:44:34.704Z,11.22
2023-04-08T16:47:01.027Z,11.33
2023-04-08T16:49:27.327Z,11.37
2023-04-08T16:51:53.638Z,11.22
2023-04-08T16:54:19.964Z,11.45
2023-04-08T16:56:46.274Z,11.62
2023-04-08T16:59:12.575Z,11.50
2023-04-08T17:01:38.934Z,11.39
2023-04-08T17:04:05.318Z,11.37
2023-04-08T17:06:31.635Z,11.55
2023-04-08T17:08:58.269Z,11.26
2023-04-08T17:11:24.696Z,11.34
2023-04-08T17:13:51.196Z,11.25
2023-04-08T17:16:17.751Z,11.25
2023-04-08T17:18:44.061Z,11.41
2023-04-08T17:21:10.373Z,11.49
2023-04-08T17:23:36.735Z,11.48
2023-04-08T17:26:03.036Z,11.52
2023-04-08T17:28:29.338Z,11.57
2023-04-08T17:30:55.655Z,11.62
2023-04-08T17:33:21.940Z,11.55
2023-04-08T17:35:48.256Z,11.49
2023-04-08T17:38:14.581Z,11.40
2023-04-08T17:40:40.900Z,11.52
2023-04-08T17:43:07.189Z,11.67
2023-04-08T17:45:33.539Z,11.67
2023-04-08T17:47:59.889Z,11.47
2023-04-08T17:50:26.223Z,11.54
2023-04-08T17:52:52.558Z,11.65
2023-04-08T17:55:18.881Z,11.51
2023-04-08T17:57:45.182Z,11.56
2023-04-08T18:00:11.508Z,11.51
2023-04-08T18:02:37.993Z,11.51
2023-04-08T18:05:04.411Z,11.48
2023-04-08T18:07:30.742Z,11.39
2023-04-08T18:09:57.039Z,11.45
2023-04-08T18:12:23.343Z,11.44
2023-04-08T18:14:49.666Z,11.22
2023-04-08T18:17:15.964Z,11.04
2023-04-08T18:19:42.264Z,11.15
2023-04-08T18:22:08.590Z,11.14
2023-04-08T18:24:34.883Z,10.93
2023-04-08T18:27:04.446Z,10.93
2023-04-08T18:29:31.411Z,10.64
2023-04-08T18:31:57.729Z,10.70
2023-04-08T18:34:24.041Z,10.64
2023-04-08T18:36:50.359Z,10.68
2023-04-08T18:39:16.650Z,10.50
2023-04-08T18:41:42.958Z,10.58
2023-04-08T18:44:09.276Z,10.67
2023-04-08T18:46:35.691Z,10.58
2023-04-08T18:49:02.086Z,10.67
2023-04-08T18:51:28.411Z,10.44
2023-04-08T18:53:54.707Z,10.43
2023-04-08T18:56:20.998Z,10.38
2023-04-08T18:58:47.321Z,10.32
2023-04-08T19:01:13.654Z,10.41
2023-04-08T19:03:40.047Z,10.39
2023-04-08T19:06:06.473Z,10.30
2023-04-08T19:08:32.773Z,10.34
2023-04-08T19:10:59.071Z,10.40
2023-04-08T19:13:25.385Z,10.48
2023-04-08T19:15:51.703Z,10.28
2023-04-08T19:18:18.146Z,10.22
2023-04-08T19:20:44.462Z,10.34
2023-04-08T19:23:10.778Z,10.24
2023-04-08T19:25:37.084Z,10.13
2023-04-08T19:28:03.410Z,10.27
2023-04-08T19:30:29.723Z,10.31
2023-04-08T19:32:56.053Z,10.12
2023-04-08T19:35:22.432Z,10.07
2023-04-08T19:37:48.729Z,10.05
2023-04-08T19:40:15.026Z,10.02
2023-04-08T19:42:41.349Z,10.01
2023-04-08T19:45:07.648Z,10.02
2023-04-08T19:47:33.983Z,10.02
2023-04-08T19:50:00.358Z,9.97
2023-04-08T19:52:26.683Z,9.90
2023-04-08T19:54:53.036Z,9.87
2023-04-08T19:57:19.405Z,9.95
2023-04-08T19:59:45.703Z,9.88
2023-04-08T20:02:12.080Z,9.82
2023-04-08T20:04:38.470Z,9.77
2023-04-08T20:07:04.835Z,9.76
2023-04-08T20:09:31.127Z,9.74
2023-04-08T20:11:57.457Z,9.63
2023-04-08T20:14:23.799Z,9.45
2023-04-08T20:16:50.085Z,9.68
2023-04-08T20:19:16.880Z,9.50
2023-04-08T20:21:43.177Z,9.53
2023-04-08T20:24:09.492Z,9.57
2023-04-08T20:26:35.793Z,9.48
2023-04-08T20:29:02.078Z,9.48
2023-04-08T20:31:28.433Z,9.62
2023-04-08T20:33:54.779Z,9.58
2023-04-08T20:36:21.128Z,9.49
2023-04-08T20:38:47.423Z,9.38
2023-04-08T20:41:13.794Z,9.37
2023-04-08T20:43:40.091Z,9.28
2023-04-08T20:46:06.400Z,9.24
2023-04-08T20:48:32.711Z,9.20
2023-04-08T20:50:59.015Z,9.11
2023-04-08T20:53:25.310Z,9.08
2023-04-08T20:55:51.632Z,8.98
2023-04-08T20:58:17.930Z,9.08
2023-04-08T21:00:44.283Z,9.05
2023-04-08T21:03:10.742Z,8.82
2023-04-08T21:05:37.159Z,8.96
2023-04-08T21:08:03.450Z,9.13
2023-04-08T21:10:29.788Z,8.99
2023-04-08T21:12:56.094Z,9.01
2023-04-08T21:15:22.425Z,9.00
2023-04-08T21:17:48.794Z,9.18
2023-04-08T21:20:15.095Z,9.20
2023-04-08T21:22:41.386Z,9.21
2023-04-08T21:25:07.746Z,9.08
2023-04-08T21:27:34.109Z,9.19
2023-04-08T21:30:00.429Z,9.17
2023-04-08T21:32:29.484Z,9.26
2023-04-08T21:34:56.433Z,9.01
2023-04-08T21:37:22.722Z,9.06
2023-04-08T21:39:49.043Z,9.06
2023-04-08T21:42:15.339Z,8.86
2023-04-08T21:44:41.646Z,8.78
2023-04-08T21:47:07.998Z,8.91
2023-04-08T21:49:34.296Z,8.77
2023-04-08T21:52:00.591Z,8.85
2023-04-08T21:54:26.912Z,9.01
2023-04-08T21:56:53.227Z,9.05
2023-04-08T21:59:19.520Z,9.06
2023-04-08T22:01:45.964Z,9.16
2023-04-08T22:04:12.383Z,9.27
2023-04-08T22:06:38.826Z,9.37
2023-04-08T22:09:05.140Z,9.27
2023-04-08T22:11:31.415Z,9.19
2023-04-08T22:13:57.720Z,9.10
2023-04-08T22:16:24.048Z,9.16
2023-04-08T22:18:50.599Z,9.05
2023-04-08T22:21:17.083Z,8.78
2023-04-08T22:23:43.390Z,8.81
2023-04-08T22:26:09.694Z,8.78
2023-04-08T22:28:35.992Z,8.72
2023-04-08T22:31:02.330Z,8.72
2023-04-08T22:33:28.643Z,8.82
2023-04-08T22:35:55.010Z,8.83
2023-04-08T22:38:21.322Z,8.77
2023-04-08T22:40:47.611Z,8.89
2023-04-08T22:43:13.895Z,8.81
2023-04-08T22:45:40.207Z,8.89
2023-04-08T22:48:06.620Z,8.79
2023-04-08T22:50:32.976Z,8.86
2023-04-08T22:52:59.319Z,8.76
2023-04-08T22:55:25.608Z,8.65
2023-04-08T22:57:51.902Z,8.63
2023-04-08T23:00:18.262Z,8.76
2023-04-08T23:02:44.630Z,8.68
2023-04-08T23:05:11.002Z,8.51
2023-04-08T23:07:37.314Z,8.63
2023-04-08T23:10:03.692Z,8.55
2023-04-08T23:12:29.999Z,8.39
2023-04-08T23:14:56.313Z,8.31
2023-04-08T23:17:22.717Z,8.19
2023-04-08T23:19:49.070Z,8.28
2023-04-08T23:22:15.371Z,8.38
2023-04-08T23:24:41.681Z,8.37
2023-04-08T23:27:07.973Z,8.25
2023-04-08T23:29:34.294Z,8.30
2023-04-08T23:32:00.616Z,8.23
2023-04-08T23:34:26.942Z,8.31
2023-04-08T23:36:53.281Z,8.25
2023-04-08T23:39:19.593Z,8.33
2023-04-08T23:41:45.915Z,8.26
2023-04-08T23:44:12.246Z,8.22
2023-04-08T23:46:38.601Z,8.32
2023-04-08T23:49:04.953Z,8.29
2023-04-08T23:51:31.282Z,8.13
2023-04-08T23:53:57.678Z,8.20
2023-04-08T23:56:23.987Z,8.15
2023-04-08T23:58:50.803Z,8.15
